createdAt,value
2018-09-17T00:00:12.540Z,12.40
2018-09-17T00:02:41.673Z,12.40
2018-09-17T00:05:10.774Z,12.40
2018-09-17T00:07:39.789Z,12.30
2018-09-17T00:10:09.009Z,12.30
2018-09-17T00:12:38.128Z,12.30
2018-09-17T00:15:07.325Z,12.20
2018-09-17T00:17:36.494Z,12.20
2018-09-17T00:20:05.669Z,12.20
2018-09-17T00:22:34.721Z,12.20
2018-09-17T00:25:03.873Z,12.20
2018-09-17T00:27:32.959Z,12.20
2018-09-17T00:30:02.051Z,12.10
2018-09-17T00:32:31.081Z,12.10
2018-09-17T00:35:00.170Z,12.10
2018-09-17T00:37:29.310Z,12.10
2018-09-17T00:39:58.545Z,12.10
2018-09-17T00:42:27.560Z,12.10
2018-09-17T00:44:56.609Z,12.10
2018-09-17T00:47:25.697Z,12.10
2018-09-17T00:49:54.814Z,12.00
2018-09-17T00:52:23.873Z,12.00
2018-09-17T00:54:52.968Z,12.10
2018-09-17T00:57:22.316Z,12.10
2018-09-17T00:59:51.749Z,12.10
2018-09-17T01:02:20.938Z,12.10
2018-09-17T01:04:49.988Z,12.00
2018-09-17T01:07:19.039Z,12.00
2018-09-17T01:09:48.085Z,11.90
2018-09-17T01:12:17.177Z,11.90
2018-09-17T01:14:46.283Z,11.80
2018-09-17T01:17:15.360Z,11.90
2018-09-17T01:19:44.407Z,11.80
2018-09-17T01:22:13.470Z,11.80
2018-09-17T01:24:42.555Z,11.80
2018-09-17T01:27:11.584Z,11.80
2018-09-17T01:29:40.659Z,11.80
2018-09-17T01:32:09.730Z,11.70
2018-09-17T01:34:38.974Z,11.70
2018-09-17T01:37:08.049Z,11.70
2018-09-17T01:39:37.079Z,11.70
2018-09-17T01:42:06.168Z,11.60
2018-09-17T01:44:35.248Z,11.60
2018-09-17T01:47:04.348Z,11.60
2018-09-17T01:49:33.445Z,11.60
2018-09-17T01:52:02.461Z,11.60
2018-09-17T01:54:31.541Z,11.60
2018-09-17T01:57:00.677Z,11.50
2018-09-17T01:59:29.758Z,11.60
2018-09-17T02:01:58.882Z,11.60
2018-09-17T02:04:27.846Z,11.60
2018-09-17T02:06:56.845Z,11.50
2018-09-17T02:09:25.901Z,11.50
2018-09-17T02:11:54.945Z,11.50
2018-09-17T02:14:24.058Z,11.50
2018-09-17T02:16:53.109Z,11.50
2018-09-17T02:19:22.221Z,11.50
2018-09-17T02:21:51.433Z,11.50
2018-09-17T02:24:20.798Z,11.50
2018-09-17T02:26:49.856Z,11.50
2018-09-17T02:29:19.000Z,11.50
2018-09-17T02:31:48.105Z,11.50
2018-09-17T02:34:17.325Z,11.50
2018-09-17T02:36:46.481Z,11.50
2018-09-17T02:39:15.572Z,11.40
2018-09-17T02:41:44.669Z,11.40
2018-09-17T02:44:13.736Z,11.40
2018-09-17T02:46:43.168Z,11.40
2018-09-17T02:49:12.219Z,11.40
2018-09-17T02:51:41.342Z,11.40
2018-09-17T02:54:10.913Z,11.40
2018-09-17T02:56:39.974Z,11.40
2018-09-17T02:59:09.046Z,11.30
2018-09-17T03:01:38.253Z,11.40
2018-09-17T03:04:07.360Z,11.40
2018-09-17T03:06:36.478Z,11.40
2018-09-17T03:09:07.656Z,11.40
2018-09-17T03:11:36.773Z,11.40
2018-09-17T03:14:05.893Z,11.40
2018-09-17T03:16:36.628Z,11.40
2018-09-17T03:19:05.708Z,11.40
2018-09-17T03:21:34.824Z,11.40
2018-09-17T03:24:04.098Z,11.40
2018-09-17T03:26:33.120Z,11.40
2018-09-17T03:29:02.221Z,11.40
2018-09-17T03:31:31.342Z,11.40
2018-09-17T03:34:00.494Z,11.40
2018-09-17T03:36:29.597Z,11.50
2018-09-17T03:38:58.653Z,11.50
2018-09-17T03:41:27.745Z,11.50
2018-09-17T03:43:56.773Z,11.60
2018-09-17T03:46:25.852Z,11.60
2018-09-17T03:48:54.911Z,11.60
2018-09-17T03:51:23.972Z,11.60
2018-09-17T03:53:52.985Z,11.60
2018-09-17T03:56:22.167Z,11.60
2018-09-17T03:58:51.324Z,11.50
2018-09-17T04:01:20.478Z,11.50
2018-09-17T04:03:49.554Z,11.50
2018-09-17T04:06:18.625Z,11.50
2018-09-17T04:08:47.680Z,11.50
2018-09-17T04:11:16.782Z,11.40
2018-09-17T04:13:45.788Z,11.40
2018-09-17T04:16:14.894Z,11.40
2018-09-17T04:18:44.098Z,11.40
2018-09-17T04:21:13.152Z,11.30
2018-09-17T04:23:42.249Z,11.40
2018-09-17T04:26:12.502Z,11.30
2018-09-17T04:28:41.585Z,11.30
2018-09-17T04:31:10.638Z,11.30
2018-09-17T04:33:41.193Z,11.30
2018-09-17T04:36:11.036Z,11.20
2018-09-17T04:38:40.225Z,11.20
2018-09-17T04:41:09.281Z,11.20
2018-09-17T04:43:38.341Z,11.10
2018-09-17T04:46:07.435Z,11.10
2018-09-17T04:48:36.534Z,11.10
2018-09-17T04:51:05.979Z,11.10
2018-09-17T04:53:35.048Z,11.00
2018-09-17T04:56:04.917Z,11.00
2018-09-17T04:58:33.950Z,11.00
2018-09-17T05:01:03.088Z,11.00
2018-09-17T05:03:32.177Z,11.00
2018-09-17T05:06:01.326Z,11.00
2018-09-17T05:08:30.478Z,11.00
2018-09-17T05:10:59.569Z,11.00
2018-09-17T05:13:28.757Z,11.00
2018-09-17T05:15:57.764Z,11.00
2018-09-17T05:18:26.876Z,11.00
2018-09-17T05:20:56.014Z,11.00
2018-09-17T05:23:25.153Z,10.90
2018-09-17T05:25:54.433Z,10.90
2018-09-17T05:28:23.548Z,10.80
2018-09-17T05:30:52.616Z,10.80
2018-09-17T05:33:21.645Z,10.80
2018-09-17T05:35:50.674Z,10.90
2018-09-17T05:38:19.793Z,10.90
2018-09-17T05:40:48.876Z,10.90
2018-09-17T05:43:18.016Z,10.90
2018-09-17T05:45:47.072Z,10.90
2018-09-17T05:48:16.206Z,11.00
2018-09-17T05:50:45.293Z,11.00
2018-09-17T05:53:14.447Z,11.10
2018-09-17T05:55:43.569Z,11.10
2018-09-17T05:58:17.800Z,11.10
2018-09-17T06:00:46.897Z,11.20
2018-09-17T06:03:16.066Z,11.30
2018-09-17T06:05:45.144Z,11.30
2018-09-17T06:08:14.173Z,11.30
2018-09-17T06:10:43.266Z,11.40
2018-09-17T06:13:12.363Z,11.40
2018-09-17T06:15:41.558Z,11.50
2018-09-17T06:18:10.645Z,11.50
2018-09-17T06:20:39.664Z,11.60
2018-09-17T06:23:08.748Z,11.60
2018-09-17T06:25:37.821Z,11.70
2018-09-17T06:28:06.900Z,11.80
2018-09-17T06:30:35.908Z,11.90
2018-09-17T06:33:04.996Z,12.00
2018-09-17T06:35:34.087Z,12.10
2018-09-17T06:38:03.220Z,12.30
2018-09-17T06:40:33.146Z,12.40
2018-09-17T06:43:03.875Z,12.50
2018-09-17T06:45:33.005Z,12.70
2018-09-17T06:48:02.090Z,12.80
2018-09-17T06:50:31.165Z,13.00
2018-09-17T06:53:00.273Z,13.10
2018-09-17T06:55:29.402Z,13.20
2018-09-17T06:57:58.525Z,13.30
2018-09-17T07:00:46.455Z,13.50
2018-09-17T07:03:15.538Z,13.60
2018-09-17T07:05:44.634Z,13.80
2018-09-17T07:08:13.797Z,13.90
2018-09-17T07:10:43.370Z,14.10
2018-09-17T07:13:12.510Z,14.30
2018-09-17T07:15:41.541Z,14.40
2018-09-17T07:18:11.861Z,14.60
2018-09-17T07:20:41.641Z,14.80
2018-09-17T07:23:10.757Z,15.00
2018-09-17T07:25:39.804Z,15.20
2018-09-17T07:28:08.905Z,15.40
2018-09-17T07:30:38.025Z,15.50
2018-09-17T07:33:07.170Z,15.70
2018-09-17T07:35:36.261Z,15.90
2018-09-17T07:38:05.737Z,16.10
2018-09-17T07:40:34.986Z,16.30
2018-09-17T07:43:04.154Z,16.40
2018-09-17T07:45:33.284Z,16.60
2018-09-17T07:48:02.455Z,16.70
2018-09-17T07:59:25.673Z,17.40
2018-09-17T08:01:54.797Z,17.60
2018-09-17T08:04:23.911Z,17.80
2018-09-17T08:06:52.961Z,18.00
2018-09-17T08:09:22.145Z,18.20
2018-09-17T08:11:51.757Z,18.30
2018-09-17T08:14:20.922Z,18.40
2018-09-17T08:16:50.023Z,18.60
2018-09-17T08:19:19.196Z,18.70
2018-09-17T08:21:48.390Z,18.90
2018-09-17T08:24:17.509Z,19.10
2018-09-17T08:26:46.606Z,19.20
2018-09-17T08:29:15.806Z,19.40
2018-09-17T08:31:44.922Z,19.50
2018-09-17T08:34:14.026Z,19.70
2018-09-17T08:36:43.177Z,19.80
2018-09-17T08:39:13.593Z,20.00
2018-09-17T08:41:43.126Z,20.10
2018-09-17T08:44:12.853Z,20.30
2018-09-17T08:46:41.995Z,20.40
2018-09-17T08:49:11.098Z,20.50
2018-09-17T08:51:40.257Z,20.60
2018-09-17T08:54:09.818Z,20.60
2018-09-17T08:56:43.994Z,20.80
2018-09-17T08:59:18.316Z,20.90
2018-09-17T09:01:52.516Z,21.00
2018-09-17T09:04:26.712Z,21.10
2018-09-17T09:07:58.668Z,21.20
2018-09-17T09:10:34.065Z,21.30
2018-09-17T09:13:08.096Z,21.40
2018-09-17T09:15:42.245Z,21.50
2018-09-17T09:18:11.401Z,21.60
2018-09-17T09:20:40.582Z,21.60
2018-09-17T09:23:09.772Z,21.60
2018-09-17T09:25:38.873Z,21.60
2018-09-17T09:28:09.230Z,21.70
2018-09-17T09:42:16.338Z,22.30
2018-09-17T09:44:45.617Z,22.40
2018-09-17T09:47:14.729Z,22.50
2018-09-17T09:49:43.943Z,22.60
2018-09-17T09:52:13.256Z,22.70
2018-09-17T09:54:42.361Z,22.70
2018-09-17T09:57:12.505Z,22.70
2018-09-17T09:59:41.659Z,22.80
2018-09-17T10:02:16.103Z,22.80
2018-09-17T10:04:47.698Z,22.90
2018-09-17T10:07:16.901Z,22.90
2018-09-17T10:09:51.248Z,23.10
2018-09-17T10:12:25.566Z,23.20
2018-09-17T10:14:59.881Z,23.30
2018-09-17T10:17:35.435Z,23.50
2018-09-17T10:20:04.606Z,23.60
2018-09-17T10:22:33.769Z,23.70
2018-09-17T10:25:02.835Z,23.80
2018-09-17T10:27:31.925Z,23.80
2018-09-17T10:30:01.086Z,23.80
2018-09-17T10:32:30.140Z,23.80
2018-09-17T10:34:59.215Z,23.80
2018-09-17T10:37:28.374Z,23.90
2018-09-17T10:39:57.519Z,24.00
2018-09-17T10:42:26.691Z,24.10
2018-09-17T10:45:08.533Z,24.10
2018-09-17T10:47:39.317Z,24.20
2018-09-17T10:50:08.835Z,24.20
2018-09-17T10:52:39.697Z,24.30
2018-09-17T10:55:09.652Z,24.40
2018-09-17T10:57:39.617Z,24.50
2018-09-17T11:00:09.754Z,24.50
2018-09-17T11:02:39.338Z,24.60
2018-09-17T11:05:08.898Z,24.60
2018-09-17T11:07:38.316Z,24.60
2018-09-17T11:10:07.804Z,24.80
2018-09-17T11:12:37.240Z,25.00
2018-09-17T11:15:06.575Z,25.20
2018-09-17T11:17:35.975Z,25.30
2018-09-17T11:20:05.361Z,25.30
2018-09-17T11:22:35.030Z,25.40
2018-09-17T11:25:04.654Z,25.40
2018-09-17T11:27:34.152Z,25.40
2018-09-17T11:30:05.673Z,25.60
2018-09-17T11:32:34.827Z,25.70
2018-09-17T11:35:03.973Z,25.90
2018-09-17T11:37:33.170Z,26.00
2018-09-17T11:40:02.575Z,26.10
2018-09-17T11:42:32.129Z,26.10
2018-09-17T11:45:01.651Z,26.20
2018-09-17T11:47:31.710Z,26.30
2018-09-17T11:50:00.990Z,26.50
2018-09-17T11:52:30.071Z,26.60
2018-09-17T11:54:59.233Z,26.80
2018-09-17T11:57:28.539Z,26.90
2018-09-17T11:59:57.623Z,27.00
2018-09-17T12:02:32.770Z,27.00
2018-09-17T12:05:06.588Z,27.10
2018-09-17T12:07:42.536Z,27.20
2018-09-17T12:10:12.263Z,27.30
2018-09-17T12:12:41.403Z,27.30
2018-09-17T12:15:10.585Z,27.50
2018-09-17T12:17:39.722Z,27.50
2018-09-17T12:20:09.000Z,27.50
2018-09-17T12:22:38.156Z,27.50
2018-09-17T12:25:07.395Z,27.50
2018-09-17T12:27:36.469Z,27.60
2018-09-17T12:30:05.749Z,27.70
2018-09-17T12:32:34.966Z,27.80
2018-09-17T12:35:04.141Z,28.00
2018-09-17T12:37:33.245Z,28.10
2018-09-17T12:40:02.487Z,28.20
2018-09-17T12:42:31.597Z,28.40
2018-09-17T12:45:00.710Z,28.40
2018-09-17T12:47:30.918Z,28.60
2018-09-17T12:50:00.059Z,28.70
2018-09-17T12:52:29.139Z,28.90
2018-09-17T12:54:58.817Z,29.00
2018-09-17T12:57:28.001Z,29.10
2018-09-17T12:59:58.423Z,29.10
2018-09-17T13:02:27.539Z,29.20
2018-09-17T13:04:56.856Z,29.20
2018-09-17T13:07:25.979Z,29.30
2018-09-17T13:09:55.516Z,29.30
2018-09-17T13:12:24.619Z,29.30
2018-09-17T13:14:53.864Z,29.50
2018-09-17T13:17:22.966Z,29.50
2018-09-17T13:19:52.117Z,29.60
2018-09-17T13:22:21.394Z,29.70
2018-09-17T13:24:50.611Z,29.60
2018-09-17T13:27:20.407Z,29.70
2018-09-17T13:29:49.538Z,29.80
2018-09-17T13:32:18.554Z,29.90
2018-09-17T13:34:47.710Z,29.90
2018-09-17T13:37:16.894Z,30.00
2018-09-17T13:39:46.078Z,30.10
2018-09-17T13:42:15.129Z,30.10
2018-09-17T13:44:44.283Z,30.20
2018-09-17T13:47:13.532Z,30.30
2018-09-17T13:49:42.692Z,30.30
2018-09-17T13:52:11.773Z,30.40
2018-09-17T13:54:40.985Z,30.40
2018-09-17T13:57:10.161Z,30.40
2018-09-17T13:59:39.316Z,30.40
2018-09-17T14:02:08.717Z,30.40
2018-09-17T14:04:38.038Z,30.50
2018-09-17T14:07:07.210Z,30.50
2018-09-17T14:09:36.265Z,30.50
2018-09-17T14:12:05.816Z,30.50
2018-09-17T14:14:35.000Z,30.50
2018-09-17T14:19:57.237Z,30.50
2018-09-17T14:22:26.425Z,30.30
2018-09-17T14:24:55.542Z,30.20
2018-09-17T14:27:24.649Z,30.20
2018-09-17T14:29:53.951Z,30.20
2018-09-17T14:32:28.290Z,30.10
2018-09-17T14:34:57.545Z,29.90
2018-09-17T14:37:26.778Z,29.70
2018-09-17T14:39:56.667Z,29.40
2018-09-17T14:42:25.829Z,29.20
2018-09-17T14:44:55.061Z,29.00
2018-09-17T14:47:24.229Z,28.90
2018-09-17T14:49:53.330Z,28.90
2018-09-17T14:52:22.886Z,28.90
2018-09-17T14:54:51.881Z,28.80
2018-09-17T14:57:21.129Z,28.80
2018-09-17T14:59:50.662Z,28.70
2018-09-17T15:02:19.935Z,28.70
2018-09-17T15:04:48.929Z,28.80
2018-09-17T15:07:18.032Z,28.80
2018-09-17T15:09:47.197Z,28.90
2018-09-17T15:12:16.329Z,29.00
2018-09-17T15:14:45.503Z,29.10
2018-09-17T15:17:14.485Z,29.10
2018-09-17T15:19:43.626Z,29.20
2018-09-17T15:22:12.990Z,29.20
2018-09-17T15:24:42.438Z,29.20
2018-09-17T15:27:11.669Z,29.10
2018-09-17T15:29:41.115Z,29.10
2018-09-17T15:32:26.117Z,29.10
2018-09-17T15:34:55.288Z,29.10
2018-09-17T15:37:24.613Z,29.10
2018-09-17T15:39:53.902Z,29.00
2018-09-17T15:42:23.216Z,28.90
2018-09-17T15:44:52.488Z,28.80
2018-09-17T15:47:22.199Z,28.60
2018-09-17T15:49:52.707Z,28.50
2018-09-17T15:52:22.691Z,28.40
2018-09-17T15:54:51.938Z,28.20
2018-09-17T15:57:21.274Z,28.10
2018-09-17T15:59:51.215Z,27.90
2018-09-17T16:02:20.526Z,27.80
2018-09-17T16:04:49.746Z,27.60
2018-09-17T16:07:18.960Z,27.50
2018-09-17T16:09:57.473Z,27.40
2018-09-17T16:12:26.711Z,27.30
2018-09-17T16:14:55.809Z,27.20
2018-09-17T16:17:24.789Z,27.10
2018-09-17T16:19:54.029Z,26.90
2018-09-17T16:22:23.119Z,26.80
2018-09-17T16:24:52.550Z,26.70
2018-09-17T16:27:21.823Z,26.60
2018-09-17T16:29:51.217Z,26.50
2018-09-17T16:32:20.662Z,26.30
2018-09-17T16:34:49.975Z,26.20
2018-09-17T16:37:19.522Z,26.10
2018-09-17T16:39:48.960Z,25.90
2018-09-17T16:42:18.147Z,25.80
2018-09-17T16:44:47.512Z,25.70
2018-09-17T16:47:39.013Z,25.60
2018-09-17T16:50:08.174Z,25.50
2018-09-17T16:52:38.222Z,25.40
2018-09-17T16:55:07.766Z,25.20
2018-09-17T16:57:36.953Z,25.10
2018-09-17T17:00:06.530Z,25.00
2018-09-17T17:02:35.687Z,24.80
2018-09-17T17:11:10.902Z,24.30
2018-09-17T17:13:40.512Z,24.20
2018-09-17T17:16:10.297Z,24.00
2018-09-17T17:18:40.298Z,23.90
2018-09-17T17:21:09.637Z,23.70
2018-09-17T17:23:39.027Z,23.60
2018-09-17T17:26:08.561Z,23.50
2018-09-17T17:28:38.140Z,23.40
2018-09-17T17:31:07.552Z,23.20
2018-09-17T17:33:36.719Z,23.10
2018-09-17T17:36:05.927Z,23.00
2018-09-17T17:38:35.057Z,22.80
2018-09-17T17:41:04.298Z,22.70
2018-09-17T17:43:33.454Z,22.60
2018-09-17T17:46:02.590Z,22.50
2018-09-17T17:48:31.682Z,22.40
2018-09-17T17:51:00.806Z,22.30
2018-09-17T17:53:29.945Z,22.20
2018-09-17T17:55:59.050Z,22.10
2018-09-17T17:58:28.046Z,22.00
2018-09-17T18:00:57.230Z,21.90
2018-09-17T18:03:26.271Z,21.80
2018-09-17T18:05:57.588Z,21.70
2018-09-17T18:08:26.838Z,21.60
2018-09-17T18:10:56.366Z,21.50
2018-09-17T18:13:25.549Z,21.40
2018-09-17T18:15:55.304Z,21.40
2018-09-17T18:18:40.142Z,21.30
2018-09-17T18:21:09.373Z,21.10
2018-09-17T18:23:38.714Z,21.00
2018-09-17T18:26:08.072Z,20.90
2018-09-17T18:28:37.162Z,20.80
2018-09-17T18:31:06.720Z,20.70
2018-09-17T18:33:37.476Z,20.60
2018-09-17T18:36:30.244Z,20.50
2018-09-17T18:38:59.459Z,20.50
2018-09-17T18:41:28.509Z,20.40
2018-09-17T18:43:57.626Z,20.30
2018-09-17T18:46:26.778Z,20.30
2018-09-17T18:48:55.907Z,20.20
2018-09-17T18:51:24.983Z,20.10
2018-09-17T18:53:54.215Z,20.10
2018-09-17T18:56:23.835Z,20.00
2018-09-17T18:58:52.951Z,19.90
2018-09-17T19:01:22.149Z,19.80
2018-09-17T19:03:51.309Z,19.80
2018-09-17T19:06:20.619Z,19.70
2018-09-17T19:08:49.680Z,19.70
2018-09-17T19:11:18.960Z,19.60
2018-09-17T19:13:53.165Z,19.50
2018-09-17T19:16:27.373Z,19.50
2018-09-17T19:18:56.603Z,19.40
2018-09-17T19:21:30.081Z,19.30
2018-09-17T19:24:03.182Z,19.30
2018-09-17T19:26:32.491Z,19.20
2018-09-17T19:29:07.251Z,19.20
2018-09-17T19:31:36.505Z,19.10
2018-09-17T19:34:05.777Z,19.00
2018-09-17T19:36:34.870Z,19.00
2018-09-17T19:39:09.533Z,18.90
2018-09-17T19:41:38.807Z,18.90
2018-09-17T19:44:08.867Z,18.80
2018-09-17T19:46:38.004Z,18.70
2018-09-17T19:49:07.122Z,18.70
2018-09-17T19:51:41.261Z,18.60
2018-09-17T19:54:10.666Z,18.60
2018-09-17T19:56:39.808Z,18.50
2018-09-17T19:59:14.110Z,18.50
2018-09-17T20:01:43.823Z,18.40
2018-09-17T20:04:18.199Z,18.30
2018-09-17T20:06:47.450Z,18.20
2018-09-17T20:09:17.256Z,18.20
2018-09-17T20:11:48.784Z,18.10
2018-09-17T20:14:18.021Z,18.10
2018-09-17T20:16:49.008Z,18.00
2018-09-17T20:19:19.027Z,17.90
2018-09-17T20:21:52.399Z,17.90
2018-09-17T20:24:21.609Z,17.80
2018-09-17T20:26:50.746Z,17.70
2018-09-17T20:29:27.152Z,17.70
2018-09-17T20:31:56.239Z,17.60
2018-09-17T20:34:25.367Z,17.50
2018-09-17T20:36:54.502Z,17.50
2018-09-17T20:39:24.826Z,17.40
2018-09-17T20:41:53.981Z,17.30
2018-09-17T20:44:23.285Z,17.30
2018-09-17T20:46:52.656Z,17.20
2018-09-17T20:49:22.554Z,17.20
2018-09-17T20:51:53.306Z,17.10
2018-09-17T20:54:23.849Z,17.10
2018-09-17T20:56:54.295Z,17.00
2018-09-17T20:59:23.365Z,16.90
2018-09-17T21:01:54.166Z,16.80
2018-09-17T21:04:23.234Z,16.80
2018-09-17T21:06:52.736Z,16.70
2018-09-17T21:09:23.348Z,16.60
2018-09-17T21:11:53.632Z,16.50
2018-09-17T21:14:22.711Z,16.50
2018-09-17T21:16:51.833Z,16.40
2018-09-17T21:19:21.078Z,16.40
2018-09-17T21:21:50.209Z,16.30
2018-09-17T21:24:19.358Z,16.30
2018-09-17T21:26:48.430Z,16.20
2018-09-17T21:29:17.638Z,16.20
2018-09-17T21:31:46.734Z,16.10
2018-09-17T21:34:17.016Z,16.10
2018-09-17T21:36:46.203Z,16.10
2018-09-17T21:39:15.710Z,16.00
2018-09-17T21:41:45.957Z,15.90
2018-09-17T21:47:08.920Z,15.80
2018-09-17T21:49:38.261Z,15.80
2018-09-17T21:52:08.719Z,15.70
2018-09-17T21:54:37.868Z,15.70
2018-09-17T21:57:07.053Z,15.60
2018-09-17T21:59:36.090Z,15.60
2018-09-17T22:02:05.225Z,15.60
2018-09-17T22:04:34.334Z,15.60
2018-09-17T22:07:03.456Z,15.60
2018-09-17T22:09:32.436Z,15.70
2018-09-17T22:12:01.485Z,15.70
2018-09-17T22:14:30.854Z,15.70
2018-09-17T22:16:59.984Z,15.80
2018-09-17T22:19:29.078Z,15.90
2018-09-17T22:21:58.501Z,15.90
2018-09-17T22:24:27.549Z,15.80
2018-09-17T22:26:56.584Z,15.80
2018-09-17T22:29:25.732Z,15.90
2018-09-17T22:31:54.856Z,15.90
2018-09-17T22:34:23.983Z,16.00
2018-09-17T22:36:53.070Z,16.00
2018-09-17T22:39:22.124Z,15.90
2018-09-17T22:41:51.220Z,15.90
2018-09-17T22:44:20.367Z,15.80
2018-09-17T22:46:49.456Z,15.80
2018-09-17T22:49:18.561Z,15.70
2018-09-17T22:51:47.694Z,15.70
2018-09-17T22:54:16.729Z,15.60
2018-09-17T22:56:45.889Z,15.60
2018-09-17T22:59:14.952Z,15.50
2018-09-17T23:01:44.150Z,15.50
2018-09-17T23:04:13.305Z,15.40
2018-09-17T23:06:42.462Z,15.40
2018-09-17T23:09:11.966Z,15.30
2018-09-17T23:11:41.070Z,15.30
2018-09-17T23:14:10.117Z,15.20
2018-09-17T23:16:39.291Z,15.20
2018-09-17T23:19:08.425Z,15.10
2018-09-17T23:21:37.518Z,15.10
2018-09-17T23:24:06.645Z,15.10
2018-09-17T23:26:35.772Z,15.20
2018-09-17T23:29:04.869Z,15.20
2018-09-17T23:31:33.958Z,15.20
2018-09-17T23:34:03.071Z,15.20
2018-09-17T23:36:32.561Z,15.20
2018-09-17T23:39:01.700Z,15.10
2018-09-17T23:41:30.821Z,15.10
2018-09-17T23:43:59.937Z,15.10
2018-09-17T23:46:29.028Z,15.00
2018-09-17T23:48:58.157Z,15.00
2018-09-17T23:51:27.709Z,15.00
2018-09-17T23:53:56.842Z,14.90
2018-09-17T23:56:25.841Z,14.90
2018-09-17T23:58:54.988Z,14.80
